sensor_id;sensor_type;location;lat;lon;timestamp;P1;durP1;ratioP1;P2;durP2;ratioP2
19329;SDS011;9799;48.214;16.388;2023-06-22T00:00:06;15.35;;;7.32;;
19329;SDS011;9799;48.214;16.388;2023-06-22T00:03:32;9.90;;;6.07;;
19329;SDS011;9799;48.214;16.388;2023-06-22T00:06:53;8.52;;;6.78;;
19329;SDS011;9799;48.214;16.388;2023-06-22T00:10:14;11.52;;;6.40;;
19329;SDS011;9799;48.214;16.388;2023-06-22T00:13:36;10.60;;;7.18;;
19329;SDS011;9799;48.214;16.388;2023-06-22T00:16:57;15.15;;;7.38;;
19329;SDS011;9799;48.214;16.388;2023-06-22T00:20:20;11.98;;;7.55;;
19329;SDS011;9799;48.214;16.388;2023-06-22T00:23:42;11.93;;;7.85;;
19329;SDS011;9799;48.214;16.388;2023-06-22T00:27:03;16.02;;;7.35;;
19329;SDS011;9799;48.214;16.388;2023-06-22T00:30:25;13.75;;;7.78;;
19329;SDS011;9799;48.214;16.388;2023-06-22T00:33:46;14.65;;;8.63;;
19329;SDS011;9799;48.214;16.388;2023-06-22T00:37:11;11.05;;;7.55;;
19329;SDS011;9799;48.214;16.388;2023-06-22T00:40:32;16.63;;;8.45;;
19329;SDS011;9799;48.214;16.388;2023-06-22T00:43:53;21.55;;;8.05;;
19329;SDS011;9799;48.214;16.388;2023-06-22T00:47:15;13.60;;;7.82;;
19329;SDS011;9799;48.214;16.388;2023-06-22T00:50:38;17.02;;;8.10;;
19329;SDS011;9799;48.214;16.388;2023-06-22T00:54:01;16.45;;;8.70;;
19329;SDS011;9799;48.214;16.388;2023-06-22T00:57:22;19.65;;;9.10;;
19329;SDS011;9799;48.214;16.388;2023-06-22T01:00:47;12.98;;;7.97;;
19329;SDS011;9799;48.214;16.388;2023-06-22T01:04:09;16.00;;;8.50;;
19329;SDS011;9799;48.214;16.388;2023-06-22T01:07:31;12.35;;;8.07;;
19329;SDS011;9799;48.214;16.388;2023-06-22T01:11:00;15.32;;;9.20;;
19329;SDS011;9799;48.214;16.388;2023-06-22T01:14:27;15.07;;;8.50;;
19329;SDS011;9799;48.214;16.388;2023-06-22T01:17:54;12.48;;;8.73;;
19329;SDS011;9799;48.214;16.388;2023-06-22T01:21:19;17.30;;;8.60;;
19329;SDS011;9799;48.214;16.388;2023-06-22T01:24:41;16.10;;;8.40;;
19329;SDS011;9799;48.214;16.388;2023-06-22T01:28:17;10.73;;;7.90;;
19329;SDS011;9799;48.214;16.388;2023-06-22T01:31:45;13.60;;;7.53;;
19329;SDS011;9799;48.214;16.388;2023-06-22T01:35:09;26.95;;;8.60;;
19329;SDS011;9799;48.214;16.388;2023-06-22T01:38:31;15.38;;;8.35;;
19329;SDS011;9799;48.214;16.388;2023-06-22T01:41:55;17.85;;;7.68;;
19329;SDS011;9799;48.214;16.388;2023-06-22T01:45:17;15.48;;;7.57;;
19329;SDS011;9799;48.214;16.388;2023-06-22T01:48:40;17.70;;;7.55;;
19329;SDS011;9799;48.214;16.388;2023-06-22T01:52:02;14.63;;;6.57;;
19329;SDS011;9799;48.214;16.388;2023-06-22T01:55:23;13.82;;;7.13;;
19329;SDS011;9799;48.214;16.388;2023-06-22T01:58:46;12.48;;;6.00;;
19329;SDS011;9799;48.214;16.388;2023-06-22T02:02:11;12.02;;;6.28;;
19329;SDS011;9799;48.214;16.388;2023-06-22T02:05:38;11.13;;;6.00;;
19329;SDS011;9799;48.214;16.388;2023-06-22T02:09:06;8.93;;;6.18;;
19329;SDS011;9799;48.214;16.388;2023-06-22T02:12:30;9.82;;;6.10;;
19329;SDS011;9799;48.214;16.388;2023-06-22T02:15:52;7.93;;;5.80;;
19329;SDS011;9799;48.214;16.388;2023-06-22T02:19:14;9.13;;;5.72;;
19329;SDS011;9799;48.214;16.388;2023-06-22T02:22:39;16.85;;;6.18;;
19329;SDS011;9799;48.214;16.388;2023-06-22T02:26:00;9.90;;;5.85;;
19329;SDS011;9799;48.214;16.388;2023-06-22T02:29:21;13.13;;;7.05;;
19329;SDS011;9799;48.214;16.388;2023-06-22T02:32:43;10.65;;;7.00;;
19329;SDS011;9799;48.214;16.388;2023-06-22T02:36:04;14.85;;;6.65;;
19329;SDS011;9799;48.214;16.388;2023-06-22T02:39:29;14.45;;;7.35;;
19329;SDS011;9799;48.214;16.388;2023-06-22T02:42:50;10.73;;;6.85;;
19329;SDS011;9799;48.214;16.388;2023-06-22T02:46:12;13.27;;;7.25;;
19329;SDS011;9799;48.214;16.388;2023-06-22T02:49:33;14.05;;;7.10;;
19329;SDS011;9799;48.214;16.388;2023-06-22T02:52:55;15.07;;;7.18;;
19329;SDS011;9799;48.214;16.388;2023-06-22T02:56:18;16.38;;;7.47;;
19329;SDS011;9799;48.214;16.388;2023-06-22T02:59:44;19.63;;;8.27;;
19329;SDS011;9799;48.214;16.388;2023-06-22T03:03:05;17.00;;;7.38;;
19329;SDS011;9799;48.214;16.388;2023-06-22T03:06:26;17.33;;;7.22;;
19329;SDS011;9799;48.214;16.388;2023-06-22T03:09:48;14.52;;;6.40;;
19329;SDS011;9799;48.214;16.388;2023-06-22T03:13:11;12.27;;;7.15;;
19329;SDS011;9799;48.214;16.388;2023-06-22T03:16:32;22.48;;;7.80;;
19329;SDS011;9799;48.214;16.388;2023-06-22T03:19:53;10.93;;;7.40;;
19329;SDS011;9799;48.214;16.388;2023-06-22T03:23:14;13.88;;;7.13;;
19329;SDS011;9799;48.214;16.388;2023-06-22T03:26:35;9.45;;;6.43;;
19329;SDS011;9799;48.214;16.388;2023-06-22T03:29:58;11.50;;;7.22;;
19329;SDS011;9799;48.214;16.388;2023-06-22T03:33:19;14.18;;;7.70;;
19329;SDS011;9799;48.214;16.388;2023-06-22T03:36:41;16.52;;;6.95;;
19329;SDS011;9799;48.214;16.388;2023-06-22T03:40:05;10.02;;;6.03;;
19329;SDS011;9799;48.214;16.388;2023-06-22T03:43:27;8.82;;;6.20;;
19329;SDS011;9799;48.214;16.388;2023-06-22T03:46:50;8.63;;;6.32;;
19329;SDS011;9799;48.214;16.388;2023-06-22T03:50:11;14.07;;;7.35;;
19329;SDS011;9799;48.214;16.388;2023-06-22T03:53:33;8.90;;;5.22;;
19329;SDS011;9799;48.214;16.388;2023-06-22T03:56:54;9.00;;;6.78;;
19329;SDS011;9799;48.214;16.388;2023-06-22T04:00:15;8.63;;;5.75;;
19329;SDS011;9799;48.214;16.388;2023-06-22T04:03:38;10.45;;;5.78;;
19329;SDS011;9799;48.214;16.388;2023-06-22T04:06:59;9.65;;;5.30;;
19329;SDS011;9799;48.214;16.388;2023-06-22T04:10:20;8.98;;;4.72;;
19329;SDS011;9799;48.214;16.388;2023-06-22T04:13:42;9.02;;;5.32;;
19329;SDS011;9799;48.214;16.388;2023-06-22T04:17:03;9.38;;;5.85;;
19329;SDS011;9799;48.214;16.388;2023-06-22T04:20:26;7.70;;;5.30;;
19329;SDS011;9799;48.214;16.388;2023-06-22T04:23:47;9.55;;;6.35;;
19329;SDS011;9799;48.214;16.388;2023-06-22T04:27:08;12.57;;;5.50;;
19329;SDS011;9799;48.214;16.388;2023-06-22T04:30:30;11.57;;;5.88;;
19329;SDS011;9799;48.214;16.388;2023-06-22T04:33:53;8.02;;;5.40;;
19329;SDS011;9799;48.214;16.388;2023-06-22T04:37:15;12.30;;;6.60;;
19329;SDS011;9799;48.214;16.388;2023-06-22T04:40:36;9.77;;;5.75;;
19329;SDS011;9799;48.214;16.388;2023-06-22T04:43:57;9.35;;;6.25;;
19329;SDS011;9799;48.214;16.388;2023-06-22T04:47:19;7.72;;;5.88;;
19329;SDS011;9799;48.214;16.388;2023-06-22T04:50:40;9.57;;;5.85;;
19329;SDS011;9799;48.214;16.388;2023-06-22T04:54:03;12.18;;;8.15;;
19329;SDS011;9799;48.214;16.388;2023-06-22T04:57:24;10.50;;;6.45;;
19329;SDS011;9799;48.214;16.388;2023-06-22T05:00:51;10.23;;;5.85;;
19329;SDS011;9799;48.214;16.388;2023-06-22T05:04:12;9.63;;;5.85;;
19329;SDS011;9799;48.214;16.388;2023-06-22T05:07:34;12.88;;;6.95;;
19329;SDS011;9799;48.214;16.388;2023-06-22T05:10:56;11.48;;;6.78;;
19329;SDS011;9799;48.214;16.388;2023-06-22T05:14:18;10.95;;;6.40;;
19329;SDS011;9799;48.214;16.388;2023-06-22T05:17:39;15.25;;;7.03;;
19329;SDS011;9799;48.214;16.388;2023-06-22T05:21:02;12.30;;;7.78;;
19329;SDS011;9799;48.214;16.388;2023-06-22T05:24:23;10.00;;;7.50;;
19329;SDS011;9799;48.214;16.388;2023-06-22T05:27:46;12.63;;;8.13;;
19329;SDS011;9799;48.214;16.388;2023-06-22T05:31:07;14.50;;;6.93;;
19329;SDS011;9799;48.214;16.388;2023-06-22T05:34:28;15.48;;;7.28;;
19329;SDS011;9799;48.214;16.388;2023-06-22T05:37:49;14.10;;;7.40;;
19329;SDS011;9799;48.214;16.388;2023-06-22T05:41:11;10.55;;;7.10;;
19329;SDS011;9799;48.214;16.388;2023-06-22T05:44:34;11.38;;;6.47;;
19329;SDS011;9799;48.214;16.388;2023-06-22T05:47:56;8.40;;;6.28;;
19329;SDS011;9799;48.214;16.388;2023-06-22T05:51:17;11.38;;;6.72;;
19329;SDS011;9799;48.214;16.388;2023-06-22T05:54:39;11.00;;;5.85;;
19329;SDS011;9799;48.214;16.388;2023-06-22T05:58:01;11.20;;;7.05;;
19329;SDS011;9799;48.214;16.388;2023-06-22T06:01:24;9.65;;;6.95;;
19329;SDS011;9799;48.214;16.388;2023-06-22T06:04:46;13.15;;;7.55;;
19329;SDS011;9799;48.214;16.388;2023-06-22T06:08:07;12.00;;;7.93;;
19329;SDS011;9799;48.214;16.388;2023-06-22T06:11:30;23.52;;;9.25;;
19329;SDS011;9799;48.214;16.388;2023-06-22T06:14:51;17.48;;;10.07;;
19329;SDS011;9799;48.214;16.388;2023-06-22T06:18:15;20.10;;;11.30;;
19329;SDS011;9799;48.214;16.388;2023-06-22T06:21:37;21.23;;;10.90;;
19329;SDS011;9799;48.214;16.388;2023-06-22T06:24:58;17.63;;;11.30;;
19329;SDS011;9799;48.214;16.388;2023-06-22T06:28:19;20.80;;;13.90;;
19329;SDS011;9799;48.214;16.388;2023-06-22T06:31:40;24.88;;;13.88;;
19329;SDS011;9799;48.214;16.388;2023-06-22T06:35:03;23.38;;;14.63;;
19329;SDS011;9799;48.214;16.388;2023-06-22T06:38:25;31.10;;;16.23;;
19329;SDS011;9799;48.214;16.388;2023-06-22T06:41:46;21.55;;;15.68;;
19329;SDS011;9799;48.214;16.388;2023-06-22T06:45:07;19.35;;;13.60;;
19329;SDS011;9799;48.214;16.388;2023-06-22T06:48:29;28.45;;;15.43;;
19329;SDS011;9799;48.214;16.388;2023-06-22T06:51:52;21.80;;;15.55;;
19329;SDS011;9799;48.214;16.388;2023-06-22T06:55:15;23.58;;;16.35;;
19329;SDS011;9799;48.214;16.388;2023-06-22T06:58:36;17.13;;;14.95;;
19329;SDS011;9799;48.214;16.388;2023-06-22T07:01:57;36.53;;;16.45;;
19329;SDS011;9799;48.214;16.388;2023-06-22T07:05:18;24.75;;;16.38;;
19329;SDS011;9799;48.214;16.388;2023-06-22T07:08:41;20.20;;;15.32;;
19329;SDS011;9799;48.214;16.388;2023-06-22T07:12:02;19.40;;;14.05;;
19329;SDS011;9799;48.214;16.388;2023-06-22T07:15:24;20.90;;;15.90;;
19329;SDS011;9799;48.214;16.388;2023-06-22T07:18:45;18.88;;;13.65;;
19329;SDS011;9799;48.214;16.388;2023-06-22T07:22:06;27.75;;;14.82;;
19329;SDS011;9799;48.214;16.388;2023-06-22T07:25:29;16.63;;;12.13;;
19329;SDS011;9799;48.214;16.388;2023-06-22T07:28:50;22.45;;;13.38;;
19329;SDS011;9799;48.214;16.388;2023-06-22T07:32:11;18.80;;;12.63;;
19329;SDS011;9799;48.214;16.388;2023-06-22T07:35:32;22.63;;;14.73;;
19329;SDS011;9799;48.214;16.388;2023-06-22T07:38:53;20.02;;;13.27;;
19329;SDS011;9799;48.214;16.388;2023-06-22T07:42:16;19.17;;;12.65;;
19329;SDS011;9799;48.214;16.388;2023-06-22T07:45:38;22.20;;;13.23;;
19329;SDS011;9799;48.214;16.388;2023-06-22T07:49:01;20.08;;;13.57;;
19329;SDS011;9799;48.214;16.388;2023-06-22T07:52:22;17.20;;;12.48;;
19329;SDS011;9799;48.214;16.388;2023-06-22T07:55:45;22.92;;;14.93;;
19329;SDS011;9799;48.214;16.388;2023-06-22T07:59:07;22.88;;;14.57;;
19329;SDS011;9799;48.214;16.388;2023-06-22T08:02:28;24.42;;;13.75;;
19329;SDS011;9799;48.214;16.388;2023-06-22T08:05:49;23.13;;;12.30;;
19329;SDS011;9799;48.214;16.388;2023-06-22T08:09:11;23.40;;;13.75;;
19329;SDS011;9799;48.214;16.388;2023-06-22T08:12:32;15.95;;;12.75;;
19329;SDS011;9799;48.214;16.388;2023-06-22T08:15:54;18.35;;;12.73;;
19329;SDS011;9799;48.214;16.388;2023-06-22T08:19:15;16.35;;;12.50;;
19329;SDS011;9799;48.214;16.388;2023-06-22T08:22:37;20.80;;;15.25;;
19329;SDS011;9799;48.214;16.388;2023-06-22T08:25:58;22.65;;;13.15;;
19329;SDS011;9799;48.214;16.388;2023-06-22T08:29:20;20.83;;;12.10;;
19329;SDS011;9799;48.214;16.388;2023-06-22T08:32:42;16.88;;;13.70;;
19329;SDS011;9799;48.214;16.388;2023-06-22T08:36:03;20.92;;;12.45;;
19329;SDS011;9799;48.214;16.388;2023-06-22T08:39:25;22.67;;;16.98;;
19329;SDS011;9799;48.214;16.388;2023-06-22T08:42:47;20.63;;;13.15;;
19329;SDS011;9799;48.214;16.388;2023-06-22T08:46:09;15.60;;;12.57;;
19329;SDS011;9799;48.214;16.388;2023-06-22T08:49:31;18.48;;;12.57;;
19329;SDS011;9799;48.214;16.388;2023-06-22T08:52:52;12.93;;;11.63;;
19329;SDS011;9799;48.214;16.388;2023-06-22T08:56:14;17.52;;;12.15;;
19329;SDS011;9799;48.214;16.388;2023-06-22T08:59:35;16.27;;;13.80;;
19329;SDS011;9799;48.214;16.388;2023-06-22T09:02:56;19.75;;;10.90;;
19329;SDS011;9799;48.214;16.388;2023-06-22T09:06:19;18.23;;;10.43;;
19329;SDS011;9799;48.214;16.388;2023-06-22T09:09:41;15.43;;;10.18;;
19329;SDS011;9799;48.214;16.388;2023-06-22T09:13:06;19.40;;;11.48;;
19329;SDS011;9799;48.214;16.388;2023-06-22T09:16:27;22.05;;;11.65;;
19329;SDS011;9799;48.214;16.388;2023-06-22T09:19:49;13.27;;;9.98;;
19329;SDS011;9799;48.214;16.388;2023-06-22T09:23:11;14.95;;;10.52;;
19329;SDS011;9799;48.214;16.388;2023-06-22T09:26:33;22.83;;;12.02;;
19329;SDS011;9799;48.214;16.388;2023-06-22T09:29:54;12.95;;;10.85;;
19329;SDS011;9799;48.214;16.388;2023-06-22T09:33:17;17.73;;;12.55;;
19329;SDS011;9799;48.214;16.388;2023-06-22T09:36:40;17.55;;;11.18;;
19329;SDS011;9799;48.214;16.388;2023-06-22T09:40:03;19.23;;;11.00;;
19329;SDS011;9799;48.214;16.388;2023-06-22T09:43:31;20.85;;;11.07;;
19329;SDS011;9799;48.214;16.388;2023-06-22T09:46:54;19.23;;;11.48;;
19329;SDS011;9799;48.214;16.388;2023-06-22T09:50:15;15.52;;;10.43;;
19329;SDS011;9799;48.214;16.388;2023-06-22T09:53:36;18.23;;;10.88;;
19329;SDS011;9799;48.214;16.388;2023-06-22T09:56:59;11.70;;;9.50;;
19329;SDS011;9799;48.214;16.388;2023-06-22T10:00:20;14.60;;;9.85;;
19329;SDS011;9799;48.214;16.388;2023-06-22T10:03:41;15.32;;;10.85;;
19329;SDS011;9799;48.214;16.388;2023-06-22T10:07:03;12.82;;;10.45;;
19329;SDS011;9799;48.214;16.388;2023-06-22T10:10:24;14.10;;;10.07;;
19329;SDS011;9799;48.214;16.388;2023-06-22T10:13:47;16.98;;;10.93;;
19329;SDS011;9799;48.214;16.388;2023-06-22T10:17:08;13.32;;;10.52;;
19329;SDS011;9799;48.214;16.388;2023-06-22T10:20:29;14.02;;;9.70;;
19329;SDS011;9799;48.214;16.388;2023-06-22T10:23:50;17.60;;;9.50;;
19329;SDS011;9799;48.214;16.388;2023-06-22T10:27:12;10.50;;;9.50;;
19329;SDS011;9799;48.214;16.388;2023-06-22T10:30:34;10.98;;;7.40;;
19329;SDS011;9799;48.214;16.388;2023-06-22T10:33:55;11.50;;;8.23;;
19329;SDS011;9799;48.214;16.388;2023-06-22T10:37:16;11.80;;;6.78;;
19329;SDS011;9799;48.214;16.388;2023-06-22T10:40:38;13.05;;;7.32;;
19329;SDS011;9799;48.214;16.388;2023-06-22T10:43:59;8.70;;;6.30;;
19329;SDS011;9799;48.214;16.388;2023-06-22T10:47:23;12.48;;;6.50;;
19329;SDS011;9799;48.214;16.388;2023-06-22T10:50:44;10.90;;;5.60;;
19329;SDS011;9799;48.214;16.388;2023-06-22T10:54:05;7.38;;;6.15;;
19329;SDS011;9799;48.214;16.388;2023-06-22T10:57:26;9.73;;;5.35;;
19329;SDS011;9799;48.214;16.388;2023-06-22T11:00:47;7.55;;;5.60;;
19329;SDS011;9799;48.214;16.388;2023-06-22T11:04:10;13.52;;;6.72;;
19329;SDS011;9799;48.214;16.388;2023-06-22T11:07:31;11.23;;;7.95;;
19329;SDS011;9799;48.214;16.388;2023-06-22T11:10:52;14.07;;;8.80;;
19329;SDS011;9799;48.214;16.388;2023-06-22T11:14:13;9.77;;;7.78;;
19329;SDS011;9799;48.214;16.388;2023-06-22T11:17:35;12.05;;;7.72;;
19329;SDS011;9799;48.214;16.388;2023-06-22T11:20:57;18.80;;;9.80;;
19329;SDS011;9799;48.214;16.388;2023-06-22T11:24:19;15.23;;;9.65;;
19329;SDS011;9799;48.214;16.388;2023-06-22T11:27:40;13.80;;;8.50;;
19329;SDS011;9799;48.214;16.388;2023-06-22T11:31:01;13.98;;;9.60;;
19329;SDS011;9799;48.214;16.388;2023-06-22T11:34:22;16.95;;;10.30;;
19329;SDS011;9799;48.214;16.388;2023-06-22T11:37:45;19.42;;;13.38;;
19329;SDS011;9799;48.214;16.388;2023-06-22T11:41:06;9.35;;;8.05;;
19329;SDS011;9799;48.214;16.388;2023-06-22T11:44:28;15.15;;;9.05;;
19329;SDS011;9799;48.214;16.388;2023-06-22T11:47:49;9.73;;;7.90;;
19329;SDS011;9799;48.214;16.388;2023-06-22T11:51:11;16.08;;;10.55;;
19329;SDS011;9799;48.214;16.388;2023-06-22T11:54:33;13.30;;;8.45;;
19329;SDS011;9799;48.214;16.388;2023-06-22T11:57:55;13.15;;;7.53;;
19329;SDS011;9799;48.214;16.388;2023-06-22T12:01:19;15.85;;;7.07;;
19329;SDS011;9799;48.214;16.388;2023-06-22T12:04:40;11.85;;;6.70;;
19329;SDS011;9799;48.214;16.388;2023-06-22T12:08:02;12.18;;;7.38;;
19329;SDS011;9799;48.214;16.388;2023-06-22T12:11:24;12.15;;;6.50;;
19329;SDS011;9799;48.214;16.388;2023-06-22T12:14:46;10.20;;;6.47;;
19329;SDS011;9799;48.214;16.388;2023-06-22T12:18:07;9.15;;;7.05;;
19329;SDS011;9799;48.214;16.388;2023-06-22T12:21:28;9.60;;;7.15;;
19329;SDS011;9799;48.214;16.388;2023-06-22T12:24:49;13.07;;;6.72;;
19329;SDS011;9799;48.214;16.388;2023-06-22T12:28:12;9.02;;;6.55;;
19329;SDS011;9799;48.214;16.388;2023-06-22T12:31:33;13.35;;;8.18;;
19329;SDS011;9799;48.214;16.388;2023-06-22T12:34:54;13.38;;;10.98;;
19329;SDS011;9799;48.214;16.388;2023-06-22T12:38:15;15.93;;;9.48;;
19329;SDS011;9799;48.214;16.388;2023-06-22T12:41:37;14.80;;;9.32;;
19329;SDS011;9799;48.214;16.388;2023-06-22T12:44:59;12.13;;;6.18;;
19329;SDS011;9799;48.214;16.388;2023-06-22T12:48:21;11.05;;;5.57;;
19329;SDS011;9799;48.214;16.388;2023-06-22T12:51:43;9.80;;;5.30;;
19329;SDS011;9799;48.214;16.388;2023-06-22T12:55:05;7.43;;;4.88;;
19329;SDS011;9799;48.214;16.388;2023-06-22T12:58:27;14.50;;;7.47;;
19329;SDS011;9799;48.214;16.388;2023-06-22T13:01:49;13.48;;;7.07;;
19329;SDS011;9799;48.214;16.388;2023-06-22T13:05:10;15.88;;;5.95;;
19329;SDS011;9799;48.214;16.388;2023-06-22T13:08:31;13.73;;;5.80;;
19329;SDS011;9799;48.214;16.388;2023-06-22T13:11:53;8.75;;;7.03;;
19329;SDS011;9799;48.214;16.388;2023-06-22T13:15:14;13.48;;;7.30;;
19329;SDS011;9799;48.214;16.388;2023-06-22T13:18:37;9.73;;;6.22;;
19329;SDS011;9799;48.214;16.388;2023-06-22T13:21:58;11.18;;;6.60;;
19329;SDS011;9799;48.214;16.388;2023-06-22T13:25:19;8.82;;;6.22;;
19329;SDS011;9799;48.214;16.388;2023-06-22T13:28:43;10.57;;;6.10;;
19329;SDS011;9799;48.214;16.388;2023-06-22T13:32:04;11.32;;;7.28;;
19329;SDS011;9799;48.214;16.388;2023-06-22T13:35:27;10.30;;;6.68;;
19329;SDS011;9799;48.214;16.388;2023-06-22T13:38:48;15.82;;;8.85;;
19329;SDS011;9799;48.214;16.388;2023-06-22T13:42:10;10.32;;;7.03;;
19329;SDS011;9799;48.214;16.388;2023-06-22T13:45:31;13.57;;;6.45;;
19329;SDS011;9799;48.214;16.388;2023-06-22T13:48:52;8.82;;;6.88;;
19329;SDS011;9799;48.214;16.388;2023-06-22T13:52:14;10.95;;;8.27;;
19329;SDS011;9799;48.214;16.388;2023-06-22T13:55:36;12.65;;;7.68;;
19329;SDS011;9799;48.214;16.388;2023-06-22T13:58:57;11.80;;;7.15;;
19329;SDS011;9799;48.214;16.388;2023-06-22T14:02:18;13.77;;;11.48;;
19329;SDS011;9799;48.214;16.388;2023-06-22T14:05:40;15.05;;;11.38;;
19329;SDS011;9799;48.214;16.388;2023-06-22T14:09:03;16.55;;;10.13;;
19329;SDS011;9799;48.214;16.388;2023-06-22T14:12:24;13.88;;;9.63;;
19329;SDS011;9799;48.214;16.388;2023-06-22T14:15:46;10.77;;;8.60;;
19329;SDS011;9799;48.214;16.388;2023-06-22T14:19:08;11.90;;;7.85;;
19329;SDS011;9799;48.214;16.388;2023-06-22T14:22:29;14.95;;;10.50;;
19329;SDS011;9799;48.214;16.388;2023-06-22T14:25:52;12.93;;;8.05;;
19329;SDS011;9799;48.214;16.388;2023-06-22T14:29:13;12.68;;;10.07;;
19329;SDS011;9799;48.214;16.388;2023-06-22T14:32:34;10.30;;;8.70;;
19329;SDS011;9799;48.214;16.388;2023-06-22T14:35:55;13.70;;;10.13;;
19329;SDS011;9799;48.214;16.388;2023-06-22T14:39:16;13.90;;;9.15;;
19329;SDS011;9799;48.214;16.388;2023-06-22T14:42:39;15.90;;;13.65;;
19329;SDS011;9799;48.214;16.388;2023-06-22T14:46:00;12.23;;;9.00;;
19329;SDS011;9799;48.214;16.388;2023-06-22T14:49:22;8.75;;;7.85;;
19329;SDS011;9799;48.214;16.388;2023-06-22T14:52:43;13.50;;;7.70;;
19329;SDS011;9799;48.214;16.388;2023-06-22T14:56:05;12.00;;;8.80;;
19329;SDS011;9799;48.214;16.388;2023-06-22T14:59:27;14.50;;;8.23;;
19329;SDS011;9799;48.214;16.388;2023-06-22T15:02:49;13.18;;;9.32;;
19329;SDS011;9799;48.214;16.388;2023-06-22T15:06:10;14.15;;;8.45;;
19329;SDS011;9799;48.214;16.388;2023-06-22T15:09:32;12.63;;;8.88;;
19329;SDS011;9799;48.214;16.388;2023-06-22T15:12:53;14.15;;;8.00;;
19329;SDS011;9799;48.214;16.388;2023-06-22T15:16:16;18.90;;;9.50;;
19329;SDS011;9799;48.214;16.388;2023-06-22T15:19:37;17.25;;;8.35;;
19329;SDS011;9799;48.214;16.388;2023-06-22T15:22:58;18.38;;;9.07;;
19329;SDS011;9799;48.214;16.388;2023-06-22T15:26:20;9.48;;;8.45;;
19329;SDS011;9799;48.214;16.388;2023-06-22T15:29:41;13.93;;;7.65;;
19329;SDS011;9799;48.214;16.388;2023-06-22T15:33:03;11.82;;;7.20;;
19329;SDS011;9799;48.214;16.388;2023-06-22T15:36:25;18.17;;;9.90;;
19329;SDS011;9799;48.214;16.388;2023-06-22T15:39:46;10.60;;;8.65;;
19329;SDS011;9799;48.214;16.388;2023-06-22T15:43:09;10.60;;;8.50;;
19329;SDS011;9799;48.214;16.388;2023-06-22T15:46:30;13.60;;;9.20;;
19329;SDS011;9799;48.214;16.388;2023-06-22T15:49:53;16.52;;;8.73;;
19329;SDS011;9799;48.214;16.388;2023-06-22T15:53:14;15.35;;;8.43;;
19329;SDS011;9799;48.214;16.388;2023-06-22T15:56:35;13.20;;;8.43;;
19329;SDS011;9799;48.214;16.388;2023-06-22T15:59:56;12.90;;;8.23;;
19329;SDS011;9799;48.214;16.388;2023-06-22T16:03:18;13.75;;;9.90;;
19329;SDS011;9799;48.214;16.388;2023-06-22T16:06:40;15.27;;;9.50;;
19329;SDS011;9799;48.214;16.388;2023-06-22T16:10:02;11.15;;;9.25;;
19329;SDS011;9799;48.214;16.388;2023-06-22T16:13:23;12.23;;;8.98;;
19329;SDS011;9799;48.214;16.388;2023-06-22T16:16:44;14.77;;;8.65;;
19329;SDS011;9799;48.214;16.388;2023-06-22T16:20:06;14.98;;;9.57;;
19329;SDS011;9799;48.214;16.388;2023-06-22T16:23:30;13.30;;;9.90;;
19329;SDS011;9799;48.214;16.388;2023-06-22T16:26:52;15.40;;;9.68;;
19329;SDS011;9799;48.214;16.388;2023-06-22T16:30:14;16.38;;;10.25;;
19329;SDS011;9799;48.214;16.388;2023-06-22T16:33:35;13.60;;;9.52;;
19329;SDS011;9799;48.214;16.388;2023-06-22T16:36:56;10.40;;;9.00;;
19329;SDS011;9799;48.214;16.388;2023-06-22T16:40:19;13.57;;;9.73;;
19329;SDS011;9799;48.214;16.388;2023-06-22T16:43:40;13.80;;;10.20;;
19329;SDS011;9799;48.214;16.388;2023-06-22T16:47:02;14.15;;;9.90;;
19329;SDS011;9799;48.214;16.388;2023-06-22T16:50:24;14.18;;;10.80;;
19329;SDS011;9799;48.214;16.388;2023-06-22T16:53:47;15.88;;;10.57;;
19329;SDS011;9799;48.214;16.388;2023-06-22T16:57:15;17.60;;;10.75;;
19329;SDS011;9799;48.214;16.388;2023-06-22T17:00:38;14.93;;;9.98;;
19329;SDS011;9799;48.214;16.388;2023-06-22T17:04:01;13.63;;;10.50;;
19329;SDS011;9799;48.214;16.388;2023-06-22T17:07:26;15.07;;;10.63;;
19329;SDS011;9799;48.214;16.388;2023-06-22T17:10:49;16.70;;;10.13;;
19329;SDS011;9799;48.214;16.388;2023-06-22T17:14:13;16.48;;;10.48;;
19329;SDS011;9799;48.214;16.388;2023-06-22T17:17:35;12.52;;;9.40;;
19329;SDS011;9799;48.214;16.388;2023-06-22T17:20:59;15.15;;;10.68;;
19329;SDS011;9799;48.214;16.388;2023-06-22T17:24:20;16.42;;;10.07;;
19329;SDS011;9799;48.214;16.388;2023-06-22T17:27:46;11.77;;;10.13;;
19329;SDS011;9799;48.214;16.388;2023-06-22T17:31:09;11.52;;;9.50;;
19329;SDS011;9799;48.214;16.388;2023-06-22T17:34:31;18.70;;;10.55;;
19329;SDS011;9799;48.214;16.388;2023-06-22T17:37:52;17.08;;;13.30;;
19329;SDS011;9799;48.214;16.388;2023-06-22T17:41:14;15.43;;;11.93;;
19329;SDS011;9799;48.214;16.388;2023-06-22T17:44:35;16.75;;;11.05;;
19329;SDS011;9799;48.214;16.388;2023-06-22T17:47:58;14.82;;;10.75;;
19329;SDS011;9799;48.214;16.388;2023-06-22T17:51:19;14.02;;;11.05;;
19329;SDS011;9799;48.214;16.388;2023-06-22T17:54:40;16.08;;;10.80;;
19329;SDS011;9799;48.214;16.388;2023-06-22T17:58:01;13.18;;;10.23;;
19329;SDS011;9799;48.214;16.388;2023-06-22T18:01:32;12.00;;;10.80;;
19329;SDS011;9799;48.214;16.388;2023-06-22T18:04:57;12.55;;;10.55;;
19329;SDS011;9799;48.214;16.388;2023-06-22T18:08:24;12.88;;;10.73;;
19329;SDS011;9799;48.214;16.388;2023-06-22T18:11:46;15.75;;;11.07;;
19329;SDS011;9799;48.214;16.388;2023-06-22T18:15:09;17.10;;;11.88;;
19329;SDS011;9799;48.214;16.388;2023-06-22T18:18:31;19.35;;;11.80;;
19329;SDS011;9799;48.214;16.388;2023-06-22T18:21:55;12.68;;;11.23;;
19329;SDS011;9799;48.214;16.388;2023-06-22T18:25:16;17.83;;;11.88;;
19329;SDS011;9799;48.214;16.388;2023-06-22T18:28:38;13.38;;;10.70;;
19329;SDS011;9799;48.214;16.388;2023-06-22T18:32:00;17.63;;;11.20;;
19329;SDS011;9799;48.214;16.388;2023-06-22T18:35:21;14.15;;;10.77;;
19329;SDS011;9799;48.214;16.388;2023-06-22T18:38:44;13.05;;;10.85;;
19329;SDS011;9799;48.214;16.388;2023-06-22T18:42:09;14.70;;;10.40;;
19329;SDS011;9799;48.214;16.388;2023-06-22T18:45:30;15.20;;;10.65;;
19329;SDS011;9799;48.214;16.388;2023-06-22T18:48:52;19.08;;;11.63;;
19329;SDS011;9799;48.214;16.388;2023-06-22T18:52:14;13.77;;;11.27;;
19329;SDS011;9799;48.214;16.388;2023-06-22T18:55:38;18.27;;;10.85;;
19329;SDS011;9799;48.214;16.388;2023-06-22T18:59:01;17.60;;;11.45;;
19329;SDS011;9799;48.214;16.388;2023-06-22T19:10:22;12.90;;;10.45;;
19329;SDS011;9799;48.214;16.388;2023-06-22T19:13:46;18.00;;;12.35;;
19329;SDS011;9799;48.214;16.388;2023-06-22T19:17:08;14.85;;;10.48;;
19329;SDS011;9799;48.214;16.388;2023-06-22T19:20:39;11.75;;;10.05;;
19329;SDS011;9799;48.214;16.388;2023-06-22T19:24:00;15.05;;;11.23;;
19329;SDS011;9799;48.214;16.388;2023-06-22T19:27:22;14.70;;;11.00;;
19329;SDS011;9799;48.214;16.388;2023-06-22T19:30:52;22.23;;;11.73;;
19329;SDS011;9799;48.214;16.388;2023-06-22T19:34:14;21.00;;;10.30;;
19329;SDS011;9799;48.214;16.388;2023-06-22T19:37:36;16.90;;;11.27;;
19329;SDS011;9799;48.214;16.388;2023-06-22T19:40:59;11.27;;;9.95;;
19329;SDS011;9799;48.214;16.388;2023-06-22T19:44:21;14.60;;;10.57;;
19329;SDS011;9799;48.214;16.388;2023-06-22T19:47:44;12.32;;;10.40;;
19329;SDS011;9799;48.214;16.388;2023-06-22T19:51:06;16.15;;;9.60;;
19329;SDS011;9799;48.214;16.388;2023-06-22T19:54:27;11.45;;;9.75;;
19329;SDS011;9799;48.214;16.388;2023-06-22T19:57:50;14.00;;;10.23;;
19329;SDS011;9799;48.214;16.388;2023-06-22T20:01:12;15.30;;;10.30;;